sensor_id;sensor_type;location;lat;lon;timestamp;P1;durP1;ratioP1;P2;durP2;ratioP2
15677;SDS011;7939;50.814;6.368;2022-12-18T00:00:04;11.10;;;6.90;;
15677;SDS011;7939;50.814;6.368;2022-12-18T00:02:32;11.03;;;8.03;;
15677;SDS011;7939;50.814;6.368;2022-12-18T00:04:58;11.20;;;7.07;;
15677;SDS011;7939;50.814;6.368;2022-12-18T00:07:25;11.33;;;7.47;;
15677;SDS011;7939;50.814;6.368;2022-12-18T00:09:52;11.53;;;6.77;;
15677;SDS011;7939;50.814;6.368;2022-12-18T00:12:19;10.70;;;6.43;;
15677;SDS011;7939;50.814;6.368;2022-12-18T00:14:45;11.93;;;7.63;;
15677;SDS011;7939;50.814;6.368;2022-12-18T00:17:12;10.70;;;7.10;;
15677;SDS011;7939;50.814;6.368;2022-12-18T00:19:39;9.97;;;7.03;;
15677;SDS011;7939;50.814;6.368;2022-12-18T00:22:05;10.90;;;7.23;;
15677;SDS011;7939;50.814;6.368;2022-12-18T00:24:32;12.23;;;6.97;;
15677;SDS011;7939;50.814;6.368;2022-12-18T00:27:00;13.07;;;7.67;;
15677;SDS011;7939;50.814;6.368;2022-12-18T00:29:26;10.73;;;6.93;;
15677;SDS011;7939;50.814;6.368;2022-12-18T00:31:53;9.40;;;6.87;;
15677;SDS011;7939;50.814;6.368;2022-12-18T00:34:19;9.67;;;6.63;;
15677;SDS011;7939;50.814;6.368;2022-12-18T00:36:47;8.80;;;6.57;;
15677;SDS011;7939;50.814;6.368;2022-12-18T00:39:14;13.83;;;7.83;;
15677;SDS011;7939;50.814;6.368;2022-12-18T00:41:40;11.57;;;8.20;;
15677;SDS011;7939;50.814;6.368;2022-12-18T00:44:26;13.53;;;7.97;;
15677;SDS011;7939;50.814;6.368;2022-12-18T00:46:52;16.63;;;8.27;;
15677;SDS011;7939;50.814;6.368;2022-12-18T00:49:19;14.57;;;8.60;;
15677;SDS011;7939;50.814;6.368;2022-12-18T00:51:46;16.80;;;8.03;;
15677;SDS011;7939;50.814;6.368;2022-12-18T00:54:13;12.50;;;6.97;;
15677;SDS011;7939;50.814;6.368;2022-12-18T00:56:40;12.93;;;7.03;;
15677;SDS011;7939;50.814;6.368;2022-12-18T00:59:07;14.00;;;7.90;;
15677;SDS011;7939;50.814;6.368;2022-12-18T01:01:35;14.70;;;8.30;;
15677;SDS011;7939;50.814;6.368;2022-12-18T01:04:02;13.17;;;8.07;;
15677;SDS011;7939;50.814;6.368;2022-12-18T01:06:29;13.97;;;8.80;;
15677;SDS011;7939;50.814;6.368;2022-12-18T01:08:56;12.57;;;7.60;;
15677;SDS011;7939;50.814;6.368;2022-12-18T01:11:23;12.97;;;8.07;;
15677;SDS011;7939;50.814;6.368;2022-12-18T01:13:51;15.20;;;8.40;;
15677;SDS011;7939;50.814;6.368;2022-12-18T01:16:18;15.97;;;8.80;;
15677;SDS011;7939;50.814;6.368;2022-12-18T01:18:46;14.97;;;9.03;;
15677;SDS011;7939;50.814;6.368;2022-12-18T01:21:13;14.47;;;8.63;;
15677;SDS011;7939;50.814;6.368;2022-12-18T01:23:42;14.17;;;8.73;;
15677;SDS011;7939;50.814;6.368;2022-12-18T01:26:12;13.53;;;8.20;;
15677;SDS011;7939;50.814;6.368;2022-12-18T01:28:39;13.43;;;7.90;;
15677;SDS011;7939;50.814;6.368;2022-12-18T01:31:10;12.60;;;7.30;;
15677;SDS011;7939;50.814;6.368;2022-12-18T01:33:38;11.83;;;7.10;;
15677;SDS011;7939;50.814;6.368;2022-12-18T01:36:06;10.27;;;5.90;;
15677;SDS011;7939;50.814;6.368;2022-12-18T01:38:33;11.20;;;6.33;;
15677;SDS011;7939;50.814;6.368;2022-12-18T01:41:00;8.30;;;5.67;;
15677;SDS011;7939;50.814;6.368;2022-12-18T01:43:41;10.03;;;6.30;;
15677;SDS011;7939;50.814;6.368;2022-12-18T01:46:08;8.33;;;6.17;;
15677;SDS011;7939;50.814;6.368;2022-12-18T01:48:35;7.00;;;5.57;;
15677;SDS011;7939;50.814;6.368;2022-12-18T01:51:02;9.03;;;6.43;;
15677;SDS011;7939;50.814;6.368;2022-12-18T01:53:32;9.70;;;5.90;;
15677;SDS011;7939;50.814;6.368;2022-12-18T01:55:58;9.90;;;6.20;;
15677;SDS011;7939;50.814;6.368;2022-12-18T01:58:27;9.40;;;5.73;;
15677;SDS011;7939;50.814;6.368;2022-12-18T02:01:01;10.40;;;6.10;;
15677;SDS011;7939;50.814;6.368;2022-12-18T02:03:28;11.30;;;6.27;;
15677;SDS011;7939;50.814;6.368;2022-12-18T02:05:56;10.57;;;6.20;;
15677;SDS011;7939;50.814;6.368;2022-12-18T02:08:29;11.13;;;6.40;;
15677;SDS011;7939;50.814;6.368;2022-12-18T02:11:03;12.67;;;6.93;;
15677;SDS011;7939;50.814;6.368;2022-12-18T02:13:36;9.07;;;5.73;;
15677;SDS011;7939;50.814;6.368;2022-12-18T02:16:08;12.07;;;6.00;;
15677;SDS011;7939;50.814;6.368;2022-12-18T02:18:45;11.00;;;6.40;;
15677;SDS011;7939;50.814;6.368;2022-12-18T02:21:21;9.70;;;5.93;;
15677;SDS011;7939;50.814;6.368;2022-12-18T02:24:01;10.53;;;6.20;;
15677;SDS011;7939;50.814;6.368;2022-12-18T02:26:42;9.50;;;6.43;;
15677;SDS011;7939;50.814;6.368;2022-12-18T02:29:13;8.77;;;6.37;;
15677;SDS011;7939;50.814;6.368;2022-12-18T02:31:44;11.97;;;6.70;;
15677;SDS011;7939;50.814;6.368;2022-12-18T02:34:14;12.33;;;6.37;;
15677;SDS011;7939;50.814;6.368;2022-12-18T02:36:42;14.00;;;7.33;;
15677;SDS011;7939;50.814;6.368;2022-12-18T02:39:12;10.13;;;6.70;;
15677;SDS011;7939;50.814;6.368;2022-12-18T02:41:42;14.23;;;6.73;;
15677;SDS011;7939;50.814;6.368;2022-12-18T02:44:10;10.83;;;6.43;;
15677;SDS011;7939;50.814;6.368;2022-12-18T02:46:39;12.47;;;6.70;;
15677;SDS011;7939;50.814;6.368;2022-12-18T02:49:13;13.90;;;6.90;;
15677;SDS011;7939;50.814;6.368;2022-12-18T02:51:53;16.33;;;7.70;;
15677;SDS011;7939;50.814;6.368;2022-12-18T02:54:29;12.40;;;7.83;;
15677;SDS011;7939;50.814;6.368;2022-12-18T02:57:08;11.80;;;7.23;;
15677;SDS011;7939;50.814;6.368;2022-12-18T02:59:44;15.03;;;7.70;;
15677;SDS011;7939;50.814;6.368;2022-12-18T03:02:19;15.30;;;8.27;;
15677;SDS011;7939;50.814;6.368;2022-12-18T03:04:53;14.50;;;8.67;;
15677;SDS011;7939;50.814;6.368;2022-12-18T03:07:27;17.03;;;8.43;;
15677;SDS011;7939;50.814;6.368;2022-12-18T03:10:00;13.83;;;8.10;;
15677;SDS011;7939;50.814;6.368;2022-12-18T03:12:30;18.10;;;9.63;;
15677;SDS011;7939;50.814;6.368;2022-12-18T03:14:59;14.30;;;8.27;;
15677;SDS011;7939;50.814;6.368;2022-12-18T03:17:30;17.53;;;9.40;;
15677;SDS011;7939;50.814;6.368;2022-12-18T03:19:58;14.23;;;8.73;;
15677;SDS011;7939;50.814;6.368;2022-12-18T03:22:29;17.67;;;8.60;;
15677;SDS011;7939;50.814;6.368;2022-12-18T03:24:58;17.13;;;9.00;;
15677;SDS011;7939;50.814;6.368;2022-12-18T03:27:30;16.97;;;8.73;;
15677;SDS011;7939;50.814;6.368;2022-12-18T03:30:00;16.83;;;9.73;;
15677;SDS011;7939;50.814;6.368;2022-12-18T03:32:33;21.23;;;10.67;;
15677;SDS011;7939;50.814;6.368;2022-12-18T03:35:07;17.80;;;9.33;;
15677;SDS011;7939;50.814;6.368;2022-12-18T03:37:37;20.20;;;10.47;;
15677;SDS011;7939;50.814;6.368;2022-12-18T03:40:05;20.33;;;10.80;;
15677;SDS011;7939;50.814;6.368;2022-12-18T03:42:35;14.20;;;9.23;;
15677;SDS011;7939;50.814;6.368;2022-12-18T03:45:10;21.50;;;10.03;;
15677;SDS011;7939;50.814;6.368;2022-12-18T03:47:44;18.07;;;10.70;;
15677;SDS011;7939;50.814;6.368;2022-12-18T03:50:20;20.73;;;11.20;;
15677;SDS011;7939;50.814;6.368;2022-12-18T03:52:51;15.80;;;9.60;;
15677;SDS011;7939;50.814;6.368;2022-12-18T03:55:22;14.00;;;9.10;;
15677;SDS011;7939;50.814;6.368;2022-12-18T03:57:53;16.67;;;9.90;;
15677;SDS011;7939;50.814;6.368;2022-12-18T04:00:21;16.57;;;9.53;;
15677;SDS011;7939;50.814;6.368;2022-12-18T04:02:49;15.87;;;9.53;;
15677;SDS011;7939;50.814;6.368;2022-12-18T04:05:19;17.33;;;9.57;;
15677;SDS011;7939;50.814;6.368;2022-12-18T04:07:48;17.07;;;9.80;;
15677;SDS011;7939;50.814;6.368;2022-12-18T04:10:17;14.17;;;9.30;;
15677;SDS011;7939;50.814;6.368;2022-12-18T04:12:44;19.23;;;9.63;;
15677;SDS011;7939;50.814;6.368;2022-12-18T04:15:12;17.97;;;10.07;;
15677;SDS011;7939;50.814;6.368;2022-12-18T04:17:41;16.23;;;9.17;;
15677;SDS011;7939;50.814;6.368;2022-12-18T04:20:14;17.40;;;9.57;;
15677;SDS011;7939;50.814;6.368;2022-12-18T04:22:41;18.07;;;9.97;;
15677;SDS011;7939;50.814;6.368;2022-12-18T04:25:11;15.47;;;8.93;;
15677;SDS011;7939;50.814;6.368;2022-12-18T04:27:39;15.57;;;8.13;;
15677;SDS011;7939;50.814;6.368;2022-12-18T04:30:06;14.77;;;9.13;;
15677;SDS011;7939;50.814;6.368;2022-12-18T04:32:35;23.40;;;9.40;;
15677;SDS011;7939;50.814;6.368;2022-12-18T04:35:02;15.40;;;9.83;;
15677;SDS011;7939;50.814;6.368;2022-12-18T04:37:31;16.07;;;9.70;;
15677;SDS011;7939;50.814;6.368;2022-12-18T04:39:58;18.43;;;9.17;;
15677;SDS011;7939;50.814;6.368;2022-12-18T04:42:25;16.07;;;9.30;;
15677;SDS011;7939;50.814;6.368;2022-12-18T04:44:51;15.60;;;9.37;;
15677;SDS011;7939;50.814;6.368;2022-12-18T04:47:18;17.23;;;9.33;;
15677;SDS011;7939;50.814;6.368;2022-12-18T04:49:46;17.90;;;9.13;;
15677;SDS011;7939;50.814;6.368;2022-12-18T04:52:12;14.23;;;8.17;;
15677;SDS011;7939;50.814;6.368;2022-12-18T04:54:39;20.97;;;9.50;;
15677;SDS011;7939;50.814;6.368;2022-12-18T04:57:06;17.23;;;8.83;;
15677;SDS011;7939;50.814;6.368;2022-12-18T04:59:32;14.73;;;8.43;;
15677;SDS011;7939;50.814;6.368;2022-12-18T05:01:59;14.70;;;8.50;;
15677;SDS011;7939;50.814;6.368;2022-12-18T05:04:25;16.87;;;8.87;;
15677;SDS011;7939;50.814;6.368;2022-12-18T05:06:54;14.00;;;9.27;;
15677;SDS011;7939;50.814;6.368;2022-12-18T05:09:20;18.03;;;8.83;;
15677;SDS011;7939;50.814;6.368;2022-12-18T05:11:47;13.20;;;8.60;;
15677;SDS011;7939;50.814;6.368;2022-12-18T05:14:14;14.03;;;8.93;;
15677;SDS011;7939;50.814;6.368;2022-12-18T05:16:41;16.53;;;8.73;;
15677;SDS011;7939;50.814;6.368;2022-12-18T05:19:08;18.97;;;8.63;;
15677;SDS011;7939;50.814;6.368;2022-12-18T05:21:34;19.40;;;9.40;;
15677;SDS011;7939;50.814;6.368;2022-12-18T05:24:03;17.23;;;9.23;;
15677;SDS011;7939;50.814;6.368;2022-12-18T05:26:30;21.13;;;10.13;;
15677;SDS011;7939;50.814;6.368;2022-12-18T05:28:57;20.00;;;10.03;;
15677;SDS011;7939;50.814;6.368;2022-12-18T05:31:24;14.63;;;8.67;;
15677;SDS011;7939;50.814;6.368;2022-12-18T05:33:50;16.60;;;8.97;;
15677;SDS011;7939;50.814;6.368;2022-12-18T05:36:17;14.57;;;7.93;;
15677;SDS011;7939;50.814;6.368;2022-12-18T05:38:44;16.10;;;9.00;;
15677;SDS011;7939;50.814;6.368;2022-12-18T05:41:12;16.27;;;8.87;;
15677;SDS011;7939;50.814;6.368;2022-12-18T05:43:39;14.43;;;8.77;;
15677;SDS011;7939;50.814;6.368;2022-12-18T05:46:07;18.13;;;8.77;;
15677;SDS011;7939;50.814;6.368;2022-12-18T05:48:38;16.87;;;9.23;;
15677;SDS011;7939;50.814;6.368;2022-12-18T05:51:05;19.77;;;9.00;;
15677;SDS011;7939;50.814;6.368;2022-12-18T05:53:33;14.00;;;8.60;;
15677;SDS011;7939;50.814;6.368;2022-12-18T05:56:00;14.83;;;8.07;;
15677;SDS011;7939;50.814;6.368;2022-12-18T05:58:30;15.70;;;8.17;;
15677;SDS011;7939;50.814;6.368;2022-12-18T06:00:57;13.07;;;8.07;;
15677;SDS011;7939;50.814;6.368;2022-12-18T06:03:24;15.60;;;8.83;;
15677;SDS011;7939;50.814;6.368;2022-12-18T06:05:51;14.00;;;8.57;;
15677;SDS011;7939;50.814;6.368;2022-12-18T06:08:17;14.40;;;8.43;;
15677;SDS011;7939;50.814;6.368;2022-12-18T06:10:49;15.00;;;9.20;;
15677;SDS011;7939;50.814;6.368;2022-12-18T06:13:17;16.10;;;8.57;;
15677;SDS011;7939;50.814;6.368;2022-12-18T06:15:45;15.13;;;9.03;;
15677;SDS011;7939;50.814;6.368;2022-12-18T06:18:12;18.50;;;9.47;;
15677;SDS011;7939;50.814;6.368;2022-12-18T06:20:39;15.83;;;8.77;;
15677;SDS011;7939;50.814;6.368;2022-12-18T06:23:06;13.47;;;8.00;;
15677;SDS011;7939;50.814;6.368;2022-12-18T06:25:33;17.50;;;8.47;;
15677;SDS011;7939;50.814;6.368;2022-12-18T06:27:59;15.67;;;9.67;;
15677;SDS011;7939;50.814;6.368;2022-12-18T06:30:26;12.60;;;8.10;;
15677;SDS011;7939;50.814;6.368;2022-12-18T06:32:54;17.03;;;9.43;;
15677;SDS011;7939;50.814;6.368;2022-12-18T06:35:20;14.73;;;8.33;;
15677;SDS011;7939;50.814;6.368;2022-12-18T06:37:47;14.03;;;8.07;;
15677;SDS011;7939;50.814;6.368;2022-12-18T06:40:13;14.80;;;8.63;;
15677;SDS011;7939;50.814;6.368;2022-12-18T06:42:40;16.07;;;9.13;;
15677;SDS011;7939;50.814;6.368;2022-12-18T06:45:07;18.53;;;10.10;;
15677;SDS011;7939;50.814;6.368;2022-12-18T06:47:34;17.40;;;9.90;;
15677;SDS011;7939;50.814;6.368;2022-12-18T06:50:02;13.90;;;8.73;;
15677;SDS011;7939;50.814;6.368;2022-12-18T06:52:31;16.20;;;10.10;;
15677;SDS011;7939;50.814;6.368;2022-12-18T06:54:57;21.90;;;10.80;;
15677;SDS011;7939;50.814;6.368;2022-12-18T06:57:24;19.83;;;10.03;;
15677;SDS011;7939;50.814;6.368;2022-12-18T06:59:51;17.10;;;10.23;;
15677;SDS011;7939;50.814;6.368;2022-12-18T07:02:17;30.53;;;15.50;;
15677;SDS011;7939;50.814;6.368;2022-12-18T07:04:44;29.37;;;15.43;;
15677;SDS011;7939;50.814;6.368;2022-12-18T07:07:12;22.33;;;13.50;;
15677;SDS011;7939;50.814;6.368;2022-12-18T07:09:38;20.50;;;12.23;;
15677;SDS011;7939;50.814;6.368;2022-12-18T07:12:05;18.13;;;12.03;;
15677;SDS011;7939;50.814;6.368;2022-12-18T07:14:32;20.77;;;12.17;;
15677;SDS011;7939;50.814;6.368;2022-12-18T07:16:59;19.37;;;10.70;;
15677;SDS011;7939;50.814;6.368;2022-12-18T07:19:26;18.73;;;10.97;;
15677;SDS011;7939;50.814;6.368;2022-12-18T07:21:52;19.70;;;11.13;;
15677;SDS011;7939;50.814;6.368;2022-12-18T07:24:20;18.77;;;10.67;;
15677;SDS011;7939;50.814;6.368;2022-12-18T07:26:47;18.40;;;10.93;;
15677;SDS011;7939;50.814;6.368;2022-12-18T07:29:13;17.17;;;11.20;;
15677;SDS011;7939;50.814;6.368;2022-12-18T07:31:40;17.60;;;10.30;;
15677;SDS011;7939;50.814;6.368;2022-12-18T07:34:09;17.47;;;9.90;;
15677;SDS011;7939;50.814;6.368;2022-12-18T07:36:36;19.03;;;10.67;;
15677;SDS011;7939;50.814;6.368;2022-12-18T07:39:03;24.17;;;12.07;;
15677;SDS011;7939;50.814;6.368;2022-12-18T07:41:31;19.33;;;11.27;;
15677;SDS011;7939;50.814;6.368;2022-12-18T07:43:57;17.97;;;9.73;;
15677;SDS011;7939;50.814;6.368;2022-12-18T07:46:24;18.30;;;10.83;;
15677;SDS011;7939;50.814;6.368;2022-12-18T07:48:51;18.83;;;9.47;;
15677;SDS011;7939;50.814;6.368;2022-12-18T07:51:17;23.57;;;10.60;;
15677;SDS011;7939;50.814;6.368;2022-12-18T07:53:44;20.37;;;11.10;;
15677;SDS011;7939;50.814;6.368;2022-12-18T07:56:11;16.77;;;10.57;;
15677;SDS011;7939;50.814;6.368;2022-12-18T07:58:40;19.87;;;9.77;;
15677;SDS011;7939;50.814;6.368;2022-12-18T08:01:07;25.33;;;12.60;;
15677;SDS011;7939;50.814;6.368;2022-12-18T08:03:36;21.27;;;11.20;;
15677;SDS011;7939;50.814;6.368;2022-12-18T08:06:04;19.93;;;11.87;;
15677;SDS011;7939;50.814;6.368;2022-12-18T08:08:32;24.83;;;11.73;;
15677;SDS011;7939;50.814;6.368;2022-12-18T08:10:59;20.80;;;10.83;;
15677;SDS011;7939;50.814;6.368;2022-12-18T08:13:26;21.30;;;12.07;;
15677;SDS011;7939;50.814;6.368;2022-12-18T08:15:58;22.00;;;12.07;;
15677;SDS011;7939;50.814;6.368;2022-12-18T08:18:26;24.73;;;12.40;;
15677;SDS011;7939;50.814;6.368;2022-12-18T08:20:52;23.70;;;11.87;;
15677;SDS011;7939;50.814;6.368;2022-12-18T08:23:20;25.23;;;11.93;;
15677;SDS011;7939;50.814;6.368;2022-12-18T08:25:46;24.57;;;12.63;;
15677;SDS011;7939;50.814;6.368;2022-12-18T08:28:16;27.20;;;12.77;;
15677;SDS011;7939;50.814;6.368;2022-12-18T08:30:43;25.17;;;13.40;;
15677;SDS011;7939;50.814;6.368;2022-12-18T08:33:11;20.60;;;11.07;;
15677;SDS011;7939;50.814;6.368;2022-12-18T08:35:37;19.40;;;11.87;;
15677;SDS011;7939;50.814;6.368;2022-12-18T08:38:04;20.70;;;12.20;;
15677;SDS011;7939;50.814;6.368;2022-12-18T08:40:30;20.80;;;11.20;;
15677;SDS011;7939;50.814;6.368;2022-12-18T08:42:57;19.77;;;11.90;;
15677;SDS011;7939;50.814;6.368;2022-12-18T08:45:41;21.77;;;11.77;;
15677;SDS011;7939;50.814;6.368;2022-12-18T08:48:08;21.80;;;11.97;;
15677;SDS011;7939;50.814;6.368;2022-12-18T08:50:37;23.70;;;12.33;;
15677;SDS011;7939;50.814;6.368;2022-12-18T08:53:03;24.57;;;13.53;;
15677;SDS011;7939;50.814;6.368;2022-12-18T08:55:30;22.83;;;12.07;;
15677;SDS011;7939;50.814;6.368;2022-12-18T08:57:57;19.03;;;10.37;;
15677;SDS011;7939;50.814;6.368;2022-12-18T09:00:23;28.20;;;12.20;;
15677;SDS011;7939;50.814;6.368;2022-12-18T09:02:50;25.20;;;11.23;;
15677;SDS011;7939;50.814;6.368;2022-12-18T09:05:17;27.03;;;12.70;;
15677;SDS011;7939;50.814;6.368;2022-12-18T09:07:44;21.83;;;11.90;;
15677;SDS011;7939;50.814;6.368;2022-12-18T09:10:11;19.97;;;11.70;;
15677;SDS011;7939;50.814;6.368;2022-12-18T09:12:38;22.90;;;12.43;;
15677;SDS011;7939;50.814;6.368;2022-12-18T09:15:05;26.50;;;12.70;;
15677;SDS011;7939;50.814;6.368;2022-12-18T09:17:32;20.63;;;11.53;;
15677;SDS011;7939;50.814;6.368;2022-12-18T09:19:58;21.43;;;11.60;;
15677;SDS011;7939;50.814;6.368;2022-12-18T09:22:25;22.67;;;12.60;;
15677;SDS011;7939;50.814;6.368;2022-12-18T09:24:53;24.73;;;13.63;;
15677;SDS011;7939;50.814;6.368;2022-12-18T09:27:19;20.47;;;11.53;;
15677;SDS011;7939;50.814;6.368;2022-12-18T09:29:46;21.73;;;12.47;;
15677;SDS011;7939;50.814;6.368;2022-12-18T09:32:12;20.33;;;12.27;;
15677;SDS011;7939;50.814;6.368;2022-12-18T09:34:39;22.87;;;12.67;;
15677;SDS011;7939;50.814;6.368;2022-12-18T09:37:06;21.17;;;11.90;;
15677;SDS011;7939;50.814;6.368;2022-12-18T09:39:35;26.27;;;13.53;;
15677;SDS011;7939;50.814;6.368;2022-12-18T09:42:03;22.87;;;13.33;;
15677;SDS011;7939;50.814;6.368;2022-12-18T09:44:32;22.63;;;11.80;;
15677;SDS011;7939;50.814;6.368;2022-12-18T09:47:04;20.67;;;12.90;;
15677;SDS011;7939;50.814;6.368;2022-12-18T09:49:38;24.50;;;12.40;;
15677;SDS011;7939;50.814;6.368;2022-12-18T09:52:09;26.23;;;12.03;;
15677;SDS011;7939;50.814;6.368;2022-12-18T09:54:43;19.67;;;12.10;;
15677;SDS011;7939;50.814;6.368;2022-12-18T09:57:17;25.87;;;14.00;;
15677;SDS011;7939;50.814;6.368;2022-12-18T09:59:47;24.87;;;15.10;;
15677;SDS011;7939;50.814;6.368;2022-12-18T10:02:19;28.10;;;14.30;;
15677;SDS011;7939;50.814;6.368;2022-12-18T10:04:50;24.37;;;14.57;;
15677;SDS011;7939;50.814;6.368;2022-12-18T10:07:30;28.57;;;14.93;;
15677;SDS011;7939;50.814;6.368;2022-12-18T10:10:06;27.40;;;15.23;;
15677;SDS011;7939;50.814;6.368;2022-12-18T10:12:42;24.67;;;13.97;;
15677;SDS011;7939;50.814;6.368;2022-12-18T10:15:15;27.23;;;14.50;;
15677;SDS011;7939;50.814;6.368;2022-12-18T10:17:49;28.10;;;13.10;;
15677;SDS011;7939;50.814;6.368;2022-12-18T10:20:24;20.03;;;12.43;;
15677;SDS011;7939;50.814;6.368;2022-12-18T10:23:00;22.03;;;12.30;;
15677;SDS011;7939;50.814;6.368;2022-12-18T10:25:32;25.93;;;14.40;;
15677;SDS011;7939;50.814;6.368;2022-12-18T10:28:09;26.07;;;14.90;;
15677;SDS011;7939;50.814;6.368;2022-12-18T10:30:38;23.33;;;13.53;;
15677;SDS011;7939;50.814;6.368;2022-12-18T10:33:05;25.63;;;12.90;;
15677;SDS011;7939;50.814;6.368;2022-12-18T10:35:37;27.03;;;13.70;;
15677;SDS011;7939;50.814;6.368;2022-12-18T10:38:20;29.03;;;15.30;;
15677;SDS011;7939;50.814;6.368;2022-12-18T10:40:49;24.73;;;13.77;;
15677;SDS011;7939;50.814;6.368;2022-12-18T10:43:21;27.70;;;16.07;;
15677;SDS011;7939;50.814;6.368;2022-12-18T10:45:57;22.80;;;14.17;;
15677;SDS011;7939;50.814;6.368;2022-12-18T10:48:26;25.13;;;14.10;;
15677;SDS011;7939;50.814;6.368;2022-12-18T10:50:53;28.00;;;15.43;;
15677;SDS011;7939;50.814;6.368;2022-12-18T10:53:21;26.17;;;14.90;;
15677;SDS011;7939;50.814;6.368;2022-12-18T10:55:50;28.20;;;14.53;;
15677;SDS011;7939;50.814;6.368;2022-12-18T10:58:22;29.23;;;14.43;;
15677;SDS011;7939;50.814;6.368;2022-12-18T11:01:04;26.23;;;14.50;;
15677;SDS011;7939;50.814;6.368;2022-12-18T11:03:34;24.13;;;14.73;;
15677;SDS011;7939;50.814;6.368;2022-12-18T11:06:03;26.87;;;14.37;;
15677;SDS011;7939;50.814;6.368;2022-12-18T11:08:34;17.10;;;11.07;;
15677;SDS011;7939;50.814;6.368;2022-12-18T11:11:01;18.80;;;12.27;;
15677;SDS011;7939;50.814;6.368;2022-12-18T11:13:30;23.80;;;12.13;;
15677;SDS011;7939;50.814;6.368;2022-12-18T11:15:57;21.93;;;12.77;;
15677;SDS011;7939;50.814;6.368;2022-12-18T11:18:26;23.30;;;13.77;;
15677;SDS011;7939;50.814;6.368;2022-12-18T11:20:56;23.73;;;12.63;;
15677;SDS011;7939;50.814;6.368;2022-12-18T11:23:25;26.53;;;15.43;;
15677;SDS011;7939;50.814;6.368;2022-12-18T11:25:54;27.10;;;17.33;;
15677;SDS011;7939;50.814;6.368;2022-12-18T11:28:34;21.50;;;13.57;;
15677;SDS011;7939;50.814;6.368;2022-12-18T11:34:01;23.63;;;14.67;;
15677;SDS011;7939;50.814;6.368;2022-12-18T11:36:36;26.93;;;14.40;;
15677;SDS011;7939;50.814;6.368;2022-12-18T11:39:09;27.80;;;14.47;;
15677;SDS011;7939;50.814;6.368;2022-12-18T11:41:43;25.50;;;13.83;;
15677;SDS011;7939;50.814;6.368;2022-12-18T11:44:35;23.37;;;11.87;;
15677;SDS011;7939;50.814;6.368;2022-12-18T11:47:09;17.80;;;11.60;;
15677;SDS011;7939;50.814;6.368;2022-12-18T11:49:41;27.03;;;16.03;;
15677;SDS011;7939;50.814;6.368;2022-12-18T11:52:09;26.10;;;14.00;;
15677;SDS011;7939;50.814;6.368;2022-12-18T11:54:41;23.77;;;13.73;;
15677;SDS011;7939;50.814;6.368;2022-12-18T11:57:09;21.77;;;13.93;;
15677;SDS011;7939;50.814;6.368;2022-12-18T11:59:50;26.63;;;15.23;;
15677;SDS011;7939;50.814;6.368;2022-12-18T12:02:34;26.90;;;14.40;;
15677;SDS011;7939;50.814;6.368;2022-12-18T12:05:25;24.87;;;15.17;;
15677;SDS011;7939;50.814;6.368;2022-12-18T12:08:01;27.63;;;14.47;;
15677;SDS011;7939;50.814;6.368;2022-12-18T12:10:42;22.53;;;12.83;;
15677;SDS011;7939;50.814;6.368;2022-12-18T12:13:25;22.47;;;12.67;;
15677;SDS011;7939;50.814;6.368;2022-12-18T12:16:09;23.33;;;13.10;;
15677;SDS011;7939;50.814;6.368;2022-12-18T12:18:47;21.93;;;13.07;;
15677;SDS011;7939;50.814;6.368;2022-12-18T12:21:21;23.43;;;13.20;;
15677;SDS011;7939;50.814;6.368;2022-12-18T12:23:57;23.57;;;13.47;;
15677;SDS011;7939;50.814;6.368;2022-12-18T12:26:30;24.10;;;13.10;;
15677;SDS011;7939;50.814;6.368;2022-12-18T12:29:06;24.23;;;14.57;;
15677;SDS011;7939;50.814;6.368;2022-12-18T12:31:50;20.73;;;12.37;;
15677;SDS011;7939;50.814;6.368;2022-12-18T12:34:30;23.13;;;12.60;;
15677;SDS011;7939;50.814;6.368;2022-12-18T12:37:08;24.50;;;12.97;;
15677;SDS011;7939;50.814;6.368;2022-12-18T12:39:46;32.50;;;15.10;;
15677;SDS011;7939;50.814;6.368;2022-12-18T12:42:15;22.00;;;13.13;;
15677;SDS011;7939;50.814;6.368;2022-12-18T12:44:59;21.27;;;12.67;;
15677;SDS011;7939;50.814;6.368;2022-12-18T12:47:33;20.83;;;13.00;;
15677;SDS011;7939;50.814;6.368;2022-12-18T12:50:05;22.80;;;13.10;;
15677;SDS011;7939;50.814;6.368;2022-12-18T12:52:39;23.63;;;13.07;;
15677;SDS011;7939;50.814;6.368;2022-12-18T12:55:13;28.40;;;14.37;;
15677;SDS011;7939;50.814;6.368;2022-12-18T12:57:43;22.80;;;12.97;;
15677;SDS011;7939;50.814;6.368;2022-12-18T13:00:15;26.87;;;13.30;;
15677;SDS011;7939;50.814;6.368;2022-12-18T13:02:46;22.53;;;13.20;;
15677;SDS011;7939;50.814;6.368;2022-12-18T13:05:18;26.87;;;13.97;;
15677;SDS011;7939;50.814;6.368;2022-12-18T13:07:51;24.53;;;13.47;;
15677;SDS011;7939;50.814;6.368;2022-12-18T13:10:23;23.97;;;14.03;;
15677;SDS011;7939;50.814;6.368;2022-12-18T13:12:58;24.10;;;14.57;;
15677;SDS011;7939;50.814;6.368;2022-12-18T13:15:28;29.77;;;15.70;;
15677;SDS011;7939;50.814;6.368;2022-12-18T13:18:16;28.13;;;15.93;;
15677;SDS011;7939;50.814;6.368;2022-12-18T13:20:45;25.50;;;14.80;;
15677;SDS011;7939;50.814;6.368;2022-12-18T13:23:27;27.00;;;14.43;;
15677;SDS011;7939;50.814;6.368;2022-12-18T13:25:57;23.87;;;14.50;;
15677;SDS011;7939;50.814;6.368;2022-12-18T13:31:57;30.57;;;14.80;;
15677;SDS011;7939;50.814;6.368;2022-12-18T13:34:34;28.10;;;15.33;;
15677;SDS011;7939;50.814;6.368;2022-12-18T13:46:19;21.60;;;13.73;;
15677;SDS011;7939;50.814;6.368;2022-12-18T13:48:52;24.80;;;13.63;;
15677;SDS011;7939;50.814;6.368;2022-12-18T13:51:24;23.13;;;13.77;;
15677;SDS011;7939;50.814;6.368;2022-12-18T13:53:52;22.80;;;13.53;;
15677;SDS011;7939;50.814;6.368;2022-12-18T13:56:22;25.43;;;15.03;;
15677;SDS011;7939;50.814;6.368;2022-12-18T13:59:04;28.93;;;15.33;;
15677;SDS011;7939;50.814;6.368;2022-12-18T14:01:36;26.63;;;14.07;;
15677;SDS011;7939;50.814;6.368;2022-12-18T14:04:08;24.97;;;13.90;;
15677;SDS011;7939;50.814;6.368;2022-12-18T14:06:37;24.93;;;14.03;;
15677;SDS011;7939;50.814;6.368;2022-12-18T14:09:04;23.30;;;14.00;;
15677;SDS011;7939;50.814;6.368;2022-12-18T14:11:31;26.43;;;14.43;;
15677;SDS011;7939;50.814;6.368;2022-12-18T14:13:58;26.03;;;14.03;;
15677;SDS011;7939;50.814;6.368;2022-12-18T14:16:25;27.27;;;15.40;;
15677;SDS011;7939;50.814;6.368;2022-12-18T14:18:54;27.90;;;15.47;;
15677;SDS011;7939;50.814;6.368;2022-12-18T14:21:24;29.43;;;15.67;;
15677;SDS011;7939;50.814;6.368;2022-12-18T14:24:04;26.40;;;14.77;;
15677;SDS011;7939;50.814;6.368;2022-12-18T14:26:32;23.27;;;13.30;;
15677;SDS011;7939;50.814;6.368;2022-12-18T14:28:59;25.10;;;15.27;;
15677;SDS011;7939;50.814;6.368;2022-12-18T14:31:28;26.50;;;15.43;;
15677;SDS011;7939;50.814;6.368;2022-12-18T14:33:56;25.90;;;14.80;;
15677;SDS011;7939;50.814;6.368;2022-12-18T14:36:24;26.50;;;13.87;;
15677;SDS011;7939;50.814;6.368;2022-12-18T14:38:52;31.17;;;17.40;;
15677;SDS011;7939;50.814;6.368;2022-12-18T14:41:22;23.77;;;14.03;;
15677;SDS011;7939;50.814;6.368;2022-12-18T14:43:50;27.00;;;15.60;;
15677;SDS011;7939;50.814;6.368;2022-12-18T14:46:27;27.20;;;14.67;;
15677;SDS011;7939;50.814;6.368;2022-12-18T14:48:57;26.80;;;15.13;;
15677;SDS011;7939;50.814;6.368;2022-12-18T14:51:28;25.57;;;15.47;;
15677;SDS011;7939;50.814;6.368;2022-12-18T14:53:57;28.50;;;16.20;;
15677;SDS011;7939;50.814;6.368;2022-12-18T14:56:28;25.13;;;14.60;;
15677;SDS011;7939;50.814;6.368;2022-12-18T14:58:56;29.87;;;17.27;;
15677;SDS011;7939;50.814;6.368;2022-12-18T15:01:25;31.43;;;18.63;;
15677;SDS011;7939;50.814;6.368;2022-12-18T15:03:54;28.37;;;15.10;;
15677;SDS011;7939;50.814;6.368;2022-12-18T15:06:24;26.57;;;14.97;;
15677;SDS011;7939;50.814;6.368;2022-12-18T15:08:54;25.20;;;15.23;;
15677;SDS011;7939;50.814;6.368;2022-12-18T15:14:22;34.53;;;17.73;;